Jasper, AL

9:18 AM CST on December 05, 2019 (GMT -0600)
Walker County-Bevill

Weather History for KJFX - June, 2019

Change the Weather History Date:

Thursday, June 13, 2019

  Actual Average Record
Temperature  
Mean Temperature 68 °F -  
Max Temperature 84 °F 86 °F 98 °F (1964)
Min Temperature 53 °F 61 °F 47 °F (1985)
Cooling Degree Days 4    
Growing Degree Days 18 (Base 50)    
Moisture  
Dew Point 55 °F    
Average Humidity 69    
Maximum Humidity 100    
Minimum Humidity 32    
Precipitation  
Precipitation 0.00 in - - ()
Sea Level Pressure  
Sea Level Pressure 30.03 in    
Wind  
Wind Speed - (North)    
Max Wind Speed -    
Max Gust Speed -    
Visibility 10 miles    
Events      
Averages and records for this station are not official NWS values.
T = Trace of Precipitation, MM = Missing Value Source: NWS Daily Summary

Daily Weather History Graph

Daily Weather History Graph

Search for Another Location

Airport or City:

Astronomy

Jun. 13, 2019 Rise Set
Actual Time 5:37 AM CDT 8:01 PM CDT
Civil Twilight 5:08 AM CDT 8:30 PM CDT
Nautical Twilight 4:32 AM CDT 9:05 PM CDT
Astronomical Twilight 3:53 AM CDT 9:45 PM CDT
Moon 4:26 PM CDT (6/13) 3:10 AM CDT (6/13)
Length of Visible Light 15h 21m
Length of Day
14h 23m
Waxing Gibbous, 85% of the Moon is Illuminated
Jun 13
Waxing Gibbous
Jun 17
Full
Jun 25
Last Quarter
Jul 2
New
Jul 9
First Quarter

Hourly Weather History & Observations

Time (CDT) Temp. Heat Index Dew Point Humidity Pressure Visibility Wind Dir Wind Speed Gust Speed Precip Events Conditions
12:15 AM 57.2 °F - 57.2 °F 100% 29.94 in 10.0 mi North - - N/A   Clear
12:35 AM 57.2 °F - 57.2 °F 100% 29.93 in 10.0 mi North - - N/A   Clear
12:55 AM 57.2 °F - 57.2 °F 100% 29.94 in 10.0 mi North - - N/A   Clear
1:15 AM 57.2 °F - 57.2 °F 100% 29.93 in 10.0 mi North - - N/A   Clear
1:35 AM 57.2 °F - 57.2 °F 100% 29.93 in 10.0 mi North - - N/A   Clear
1:55 AM 57.2 °F - 57.2 °F 100% 29.93 in 10.0 mi North - - N/A   Clear
2:15 AM 55.4 °F - 55.4 °F 100% 29.93 in 10.0 mi North - - N/A   Clear
2:35 AM 55.4 °F - 55.4 °F 100% 29.94 in 10.0 mi North - - N/A   Clear
2:55 AM 55.4 °F - 55.4 °F 100% 29.94 in 10.0 mi North - - N/A   Clear
3:15 AM 55.4 °F - 55.4 °F 100% 29.94 in 10.0 mi North - - N/A   Clear
3:35 AM 55.4 °F - 55.4 °F 100% 29.94 in 10.0 mi North - - N/A   Clear
3:55 AM 55.4 °F - 55.4 °F 100% 29.95 in 10.0 mi North - - N/A   Clear
4:15 AM 53.6 °F - 53.6 °F 100% 29.96 in 10.0 mi North - - N/A   Clear
4:55 AM 53.6 °F - 53.6 °F 100% 29.97 in 10.0 mi North - - N/A   Clear
5:15 AM 53.6 °F - 53.6 °F 100% 29.98 in 10.0 mi North - - N/A   Clear
5:35 AM 53.6 °F - 53.6 °F 100% 29.98 in 10.0 mi North - - N/A   Clear
5:55 AM 53.6 °F - 53.6 °F 100% 29.98 in 10.0 mi North - - N/A   Clear
6:15 AM 53.6 °F - 53.6 °F 100% 29.99 in 10.0 mi North - - N/A   Clear
6:35 AM 55.4 °F - 55.4 °F 100% 30.00 in 10.0 mi North - - N/A   Clear
6:55 AM 59.0 °F - 59.0 °F 100% 30.00 in 10.0 mi North - - N/A   Clear
7:55 AM 66.2 °F - 59.0 °F 78% 30.02 in 10.0 mi North - - N/A   Clear
8:15 AM 68.0 °F - 59.0 °F 73% 30.02 in 10.0 mi North - - N/A   Clear
8:35 AM 69.8 °F - 57.2 °F 64% 30.03 in 10.0 mi North - - N/A   Clear
8:55 AM 71.6 °F - 57.2 °F 60% 30.04 in 10.0 mi North - - N/A   Clear
9:15 AM 73.4 °F - 57.2 °F 57% 30.03 in 10.0 mi North - - N/A   Clear
9:35 AM 75.2 °F - 57.2 °F 53% 30.04 in 10.0 mi North - - N/A   Clear
9:55 AM 77.0 °F - 57.2 °F 50% 30.04 in 10.0 mi North - - N/A   Clear
10:15 AM 77.0 °F - 53.6 °F 44% 30.05 in 10.0 mi North - - N/A   Clear
10:35 AM 78.8 °F - 53.6 °F 42% 30.05 in 10.0 mi North - - N/A   Clear
10:55 AM 78.8 °F - 53.6 °F 42% 30.05 in 10.0 mi North - - N/A   Clear
11:15 AM 78.8 °F - 53.6 °F 42% 30.05 in 10.0 mi North - - N/A   Clear
11:35 AM 80.6 °F 80.3 °F 53.6 °F 39% 30.05 in 10.0 mi North - - N/A   Clear
11:55 AM 78.8 °F - 53.6 °F 42% 30.05 in 10.0 mi North - - N/A   Clear
12:15 PM 80.6 °F 80.3 °F 53.6 °F 39% 30.05 in 10.0 mi North - - N/A   Partly Cloudy
12:35 PM 80.6 °F 80.3 °F 53.6 °F 39% 30.05 in 10.0 mi North - - N/A   Partly Cloudy
12:55 PM 82.4 °F 81.4 °F 53.6 °F 37% 30.05 in 10.0 mi North - - N/A   Partly Cloudy
1:15 PM 82.4 °F 81.7 °F 55.4 °F 39% 30.05 in 10.0 mi North - - N/A   Clear
1:35 PM 82.4 °F 81.7 °F 55.4 °F 39% 30.05 in 10.0 mi North - - N/A   Partly Cloudy
1:55 PM 84.2 °F 82.8 °F 53.6 °F 35% 30.04 in 10.0 mi North - - N/A   Partly Cloudy
2:15 PM 84.2 °F 82.8 °F 53.6 °F 35% 30.04 in 10.0 mi North - - N/A   Partly Cloudy
2:35 PM 84.2 °F 82.8 °F 53.6 °F 35% 30.05 in 10.0 mi North - - N/A   Partly Cloudy
2:55 PM 84.2 °F - 51.8 °F 33% 30.05 in 10.0 mi North - - N/A   Scattered Clouds
3:15 PM 84.2 °F - 51.8 °F 33% 30.04 in 10.0 mi North - - N/A   Partly Cloudy
3:35 PM 84.2 °F - 51.8 °F 33% 30.04 in 10.0 mi North - - N/A   Partly Cloudy
3:55 PM 82.4 °F - 51.8 °F 35% 30.05 in 10.0 mi North - - N/A   Clear
4:15 PM 82.4 °F - 51.8 °F 35% 30.04 in 10.0 mi North - - N/A   Clear
4:35 PM 80.6 °F - 51.8 °F 37% 30.04 in 10.0 mi North - - N/A   Clear
4:55 PM 82.4 °F - 51.8 °F 35% 30.04 in 10.0 mi North - - N/A   Clear
5:35 PM 82.4 °F - 50.0 °F 32% 30.04 in 10.0 mi North - - N/A   Partly Cloudy
5:55 PM 82.4 °F - 50.0 °F 32% 30.05 in 10.0 mi North - - N/A   Clear
6:15 PM 78.8 °F - 50.0 °F 36% 30.05 in 10.0 mi North - - N/A   Clear
6:35 PM 78.8 °F - 50.0 °F 36% 30.05 in 10.0 mi North - - N/A   Clear
6:55 PM 78.8 °F - 51.8 °F 39% 30.06 in 10.0 mi North - - N/A   Clear
7:15 PM 77.0 °F - 51.8 °F 41% 30.06 in 10.0 mi North - - N/A   Partly Cloudy
7:35 PM 75.2 °F - 53.6 °F 47% 30.06 in 10.0 mi North - - N/A   Partly Cloudy
7:55 PM 71.6 °F - 59.0 °F 64% 30.06 in 10.0 mi North - - N/A   Clear
8:15 PM 66.2 °F - 59.0 °F 78% 30.07 in 10.0 mi North - - N/A   Clear
8:35 PM 64.4 °F - 59.0 °F 83% 30.07 in 10.0 mi North - - N/A   Clear
8:55 PM 62.6 °F - 59.0 °F 88% 30.07 in 10.0 mi North - - N/A   Clear
9:15 PM 60.8 °F - 59.0 °F 94% 30.08 in 10.0 mi North - - N/A   Clear
9:35 PM 59.0 °F - 59.0 °F 100% 30.09 in 10.0 mi North - - N/A   Clear
9:55 PM 59.0 °F - 59.0 °F 100% 30.10 in 10.0 mi North - - N/A   Clear
10:15 PM 59.0 °F - 59.0 °F 100% 30.11 in 10.0 mi North - - N/A   Clear
10:35 PM 57.2 °F - 57.2 °F 100% 30.12 in 10.0 mi North - - N/A   Clear
10:55 PM 57.2 °F - 57.2 °F 100% 30.12 in 10.0 mi North - - N/A   Clear
11:15 PM 57.2 °F - 57.2 °F 100% 30.13 in 10.0 mi North - - N/A   Clear
11:35 PM 55.4 °F - 55.4 °F 100% 30.13 in 10.0 mi North - - N/A   Clear
11:55 PM 55.4 °F - 55.4 °F 100% 30.13 in 10.0 mi North - - N/A   Clear